sensor_id;sensor_type;location;lat;lon;timestamp;P1;durP1;ratioP1;P2;durP2;ratioP2
66607;SDS011;53462;39.616;8.824;2022-10-13T00:00:40;5.22;;;1.65;;
66607;SDS011;53462;39.616;8.824;2022-10-13T00:03:07;10.10;;;1.70;;
66607;SDS011;53462;39.616;8.824;2022-10-13T00:05:34;6.20;;;1.35;;
66607;SDS011;53462;39.616;8.824;2022-10-13T00:08:04;6.43;;;1.33;;
66607;SDS011;53462;39.616;8.824;2022-10-13T00:10:38;4.75;;;1.20;;
66607;SDS011;53462;39.616;8.824;2022-10-13T00:13:05;7.63;;;1.45;;
66607;SDS011;53462;39.616;8.824;2022-10-13T00:15:32;6.15;;;1.60;;
66607;SDS011;53462;39.616;8.824;2022-10-13T00:18:01;10.38;;;1.60;;
66607;SDS011;53462;39.616;8.824;2022-10-13T00:20:28;9.77;;;1.50;;
66607;SDS011;53462;39.616;8.824;2022-10-13T00:22:54;11.38;;;1.55;;
66607;SDS011;53462;39.616;8.824;2022-10-13T00:25:20;5.25;;;1.30;;
66607;SDS011;53462;39.616;8.824;2022-10-13T00:27:47;7.80;;;1.10;;
66607;SDS011;53462;39.616;8.824;2022-10-13T00:30:13;6.28;;;1.48;;
66607;SDS011;53462;39.616;8.824;2022-10-13T00:32:39;5.53;;;1.45;;
66607;SDS011;53462;39.616;8.824;2022-10-13T00:35:05;6.57;;;1.30;;
66607;SDS011;53462;39.616;8.824;2022-10-13T00:37:32;6.15;;;1.40;;
66607;SDS011;53462;39.616;8.824;2022-10-13T00:39:58;9.57;;;1.48;;
66607;SDS011;53462;39.616;8.824;2022-10-13T00:42:24;12.38;;;2.00;;
66607;SDS011;53462;39.616;8.824;2022-10-13T00:45:02;12.02;;;1.80;;
66607;SDS011;53462;39.616;8.824;2022-10-13T00:47:52;7.88;;;1.58;;
66607;SDS011;53462;39.616;8.824;2022-10-13T00:50:31;7.03;;;1.52;;
66607;SDS011;53462;39.616;8.824;2022-10-13T00:53:03;9.90;;;1.50;;
66607;SDS011;53462;39.616;8.824;2022-10-13T00:55:31;6.60;;;1.48;;
66607;SDS011;53462;39.616;8.824;2022-10-13T00:57:59;5.78;;;1.75;;
66607;SDS011;53462;39.616;8.824;2022-10-13T01:00:30;6.75;;;1.60;;
66607;SDS011;53462;39.616;8.824;2022-10-13T01:02:57;13.20;;;2.10;;
66607;SDS011;53462;39.616;8.824;2022-10-13T01:05:23;6.72;;;1.63;;
66607;SDS011;53462;39.616;8.824;2022-10-13T01:07:53;10.07;;;1.90;;
66607;SDS011;53462;39.616;8.824;2022-10-13T01:10:24;7.03;;;1.70;;
66607;SDS011;53462;39.616;8.824;2022-10-13T01:16:07;6.70;;;1.63;;
66607;SDS011;53462;39.616;8.824;2022-10-13T01:21:42;7.30;;;1.60;;
66607;SDS011;53462;39.616;8.824;2022-10-13T01:30:15;9.65;;;2.00;;
66607;SDS011;53462;39.616;8.824;2022-10-13T01:33:02;8.95;;;1.50;;
66607;SDS011;53462;39.616;8.824;2022-10-13T01:38:52;7.88;;;1.85;;
66607;SDS011;53462;39.616;8.824;2022-10-13T01:41:45;6.55;;;1.40;;
66607;SDS011;53462;39.616;8.824;2022-10-13T01:46:58;10.55;;;1.83;;
66607;SDS011;53462;39.616;8.824;2022-10-13T01:49:26;6.65;;;1.40;;
66607;SDS011;53462;39.616;8.824;2022-10-13T01:51:55;8.90;;;1.63;;
66607;SDS011;53462;39.616;8.824;2022-10-13T01:54:28;8.70;;;2.08;;
66607;SDS011;53462;39.616;8.824;2022-10-13T01:56:56;5.43;;;1.27;;
66607;SDS011;53462;39.616;8.824;2022-10-13T01:59:22;7.68;;;1.52;;
66607;SDS011;53462;39.616;8.824;2022-10-13T02:05:06;8.82;;;1.60;;
66607;SDS011;53462;39.616;8.824;2022-10-13T02:08:01;7.30;;;1.45;;
66607;SDS011;53462;39.616;8.824;2022-10-13T02:10:32;7.03;;;1.25;;
66607;SDS011;53462;39.616;8.824;2022-10-13T02:13:05;9.18;;;1.60;;
66607;SDS011;53462;39.616;8.824;2022-10-13T02:18:10;3.65;;;1.60;;
66607;SDS011;53462;39.616;8.824;2022-10-13T02:20:41;5.28;;;1.40;;
66607;SDS011;53462;39.616;8.824;2022-10-13T02:23:10;9.27;;;1.77;;
66607;SDS011;53462;39.616;8.824;2022-10-13T02:25:38;9.65;;;1.50;;
66607;SDS011;53462;39.616;8.824;2022-10-13T02:28:04;8.93;;;1.48;;
66607;SDS011;53462;39.616;8.824;2022-10-13T02:30:37;7.93;;;1.35;;
66607;SDS011;53462;39.616;8.824;2022-10-13T02:33:05;8.55;;;1.60;;
66607;SDS011;53462;39.616;8.824;2022-10-13T02:35:33;8.65;;;1.52;;
66607;SDS011;53462;39.616;8.824;2022-10-13T02:38:00;8.00;;;1.75;;
66607;SDS011;53462;39.616;8.824;2022-10-13T02:40:26;7.40;;;1.60;;
66607;SDS011;53462;39.616;8.824;2022-10-13T02:42:52;9.88;;;2.00;;
66607;SDS011;53462;39.616;8.824;2022-10-13T02:45:18;8.98;;;1.90;;
66607;SDS011;53462;39.616;8.824;2022-10-13T02:47:45;7.70;;;1.70;;
66607;SDS011;53462;39.616;8.824;2022-10-13T02:50:11;6.45;;;1.92;;
66607;SDS011;53462;39.616;8.824;2022-10-13T02:52:37;7.68;;;1.65;;
66607;SDS011;53462;39.616;8.824;2022-10-13T02:55:03;7.13;;;1.60;;
66607;SDS011;53462;39.616;8.824;2022-10-13T02:57:30;6.75;;;1.98;;
66607;SDS011;53462;39.616;8.824;2022-10-13T02:59:57;9.75;;;1.83;;
66607;SDS011;53462;39.616;8.824;2022-10-13T03:02:27;6.60;;;1.77;;
66607;SDS011;53462;39.616;8.824;2022-10-13T03:04:53;8.50;;;1.98;;
66607;SDS011;53462;39.616;8.824;2022-10-13T03:07:19;11.43;;;1.80;;
66607;SDS011;53462;39.616;8.824;2022-10-13T03:09:45;6.35;;;1.80;;
66607;SDS011;53462;39.616;8.824;2022-10-13T03:12:11;4.38;;;1.50;;
66607;SDS011;53462;39.616;8.824;2022-10-13T03:14:37;7.53;;;1.60;;
66607;SDS011;53462;39.616;8.824;2022-10-13T03:17:03;3.45;;;1.83;;
66607;SDS011;53462;39.616;8.824;2022-10-13T03:19:30;11.05;;;1.88;;
66607;SDS011;53462;39.616;8.824;2022-10-13T03:21:56;4.68;;;1.40;;
66607;SDS011;53462;39.616;8.824;2022-10-13T03:24:22;5.80;;;1.60;;
66607;SDS011;53462;39.616;8.824;2022-10-13T03:26:48;7.40;;;1.98;;
66607;SDS011;53462;39.616;8.824;2022-10-13T03:29:15;8.43;;;1.95;;
66607;SDS011;53462;39.616;8.824;2022-10-13T03:31:42;7.90;;;1.90;;
66607;SDS011;53462;39.616;8.824;2022-10-13T03:34:08;7.80;;;1.63;;
66607;SDS011;53462;39.616;8.824;2022-10-13T03:36:36;6.00;;;1.55;;
66607;SDS011;53462;39.616;8.824;2022-10-13T03:39:02;7.43;;;1.77;;
66607;SDS011;53462;39.616;8.824;2022-10-13T03:41:28;8.88;;;2.10;;
66607;SDS011;53462;39.616;8.824;2022-10-13T03:43:55;5.90;;;1.70;;
66607;SDS011;53462;39.616;8.824;2022-10-13T03:46:21;5.63;;;1.38;;
66607;SDS011;53462;39.616;8.824;2022-10-13T03:48:51;5.18;;;1.70;;
66607;SDS011;53462;39.616;8.824;2022-10-13T03:51:19;7.78;;;2.03;;
66607;SDS011;53462;39.616;8.824;2022-10-13T03:53:47;4.88;;;1.90;;
66607;SDS011;53462;39.616;8.824;2022-10-13T03:56:16;8.55;;;1.92;;
66607;SDS011;53462;39.616;8.824;2022-10-13T03:58:51;5.28;;;1.63;;
66607;SDS011;53462;39.616;8.824;2022-10-13T04:01:20;5.28;;;1.55;;
66607;SDS011;53462;39.616;8.824;2022-10-13T04:03:48;6.15;;;1.80;;
66607;SDS011;53462;39.616;8.824;2022-10-13T04:06:14;6.53;;;1.85;;
66607;SDS011;53462;39.616;8.824;2022-10-13T04:08:41;6.90;;;1.60;;
66607;SDS011;53462;39.616;8.824;2022-10-13T04:11:09;7.75;;;1.63;;
66607;SDS011;53462;39.616;8.824;2022-10-13T04:13:38;4.85;;;1.48;;
66607;SDS011;53462;39.616;8.824;2022-10-13T04:16:06;7.13;;;1.80;;
66607;SDS011;53462;39.616;8.824;2022-10-13T04:18:56;6.32;;;1.48;;
66607;SDS011;53462;39.616;8.824;2022-10-13T04:21:25;9.43;;;2.08;;
66607;SDS011;53462;39.616;8.824;2022-10-13T04:23:55;5.70;;;1.60;;
66607;SDS011;53462;39.616;8.824;2022-10-13T04:26:23;7.05;;;1.98;;
66607;SDS011;53462;39.616;8.824;2022-10-13T04:28:51;6.25;;;1.52;;
66607;SDS011;53462;39.616;8.824;2022-10-13T04:31:18;10.02;;;1.83;;
66607;SDS011;53462;39.616;8.824;2022-10-13T04:33:48;8.95;;;1.77;;
66607;SDS011;53462;39.616;8.824;2022-10-13T04:36:14;8.45;;;2.40;;
66607;SDS011;53462;39.616;8.824;2022-10-13T04:38:41;8.43;;;1.92;;
66607;SDS011;53462;39.616;8.824;2022-10-13T04:41:08;6.90;;;1.80;;
66607;SDS011;53462;39.616;8.824;2022-10-13T04:43:35;9.85;;;2.47;;
66607;SDS011;53462;39.616;8.824;2022-10-13T04:46:02;5.38;;;2.03;;
66607;SDS011;53462;39.616;8.824;2022-10-13T04:48:30;5.03;;;2.00;;
66607;SDS011;53462;39.616;8.824;2022-10-13T04:50:57;6.35;;;2.22;;
66607;SDS011;53462;39.616;8.824;2022-10-13T04:53:27;9.30;;;2.20;;
66607;SDS011;53462;39.616;8.824;2022-10-13T04:55:55;7.85;;;2.00;;
66607;SDS011;53462;39.616;8.824;2022-10-13T04:58:24;7.78;;;1.63;;
66607;SDS011;53462;39.616;8.824;2022-10-13T05:00:50;4.55;;;2.08;;
66607;SDS011;53462;39.616;8.824;2022-10-13T05:03:16;5.43;;;1.70;;
66607;SDS011;53462;39.616;8.824;2022-10-13T05:05:42;6.55;;;1.63;;
66607;SDS011;53462;39.616;8.824;2022-10-13T05:08:08;4.75;;;1.90;;
66607;SDS011;53462;39.616;8.824;2022-10-13T05:10:34;6.00;;;2.28;;
66607;SDS011;53462;39.616;8.824;2022-10-13T05:13:00;5.43;;;1.85;;
66607;SDS011;53462;39.616;8.824;2022-10-13T05:15:26;5.93;;;1.83;;
66607;SDS011;53462;39.616;8.824;2022-10-13T05:17:52;9.73;;;2.00;;
66607;SDS011;53462;39.616;8.824;2022-10-13T05:20:18;5.93;;;1.88;;
66607;SDS011;53462;39.616;8.824;2022-10-13T05:22:44;6.68;;;2.10;;
66607;SDS011;53462;39.616;8.824;2022-10-13T05:25:10;9.00;;;2.28;;
66607;SDS011;53462;39.616;8.824;2022-10-13T05:27:36;8.23;;;2.63;;
66607;SDS011;53462;39.616;8.824;2022-10-13T05:30:05;8.00;;;2.10;;
66607;SDS011;53462;39.616;8.824;2022-10-13T05:32:33;4.63;;;1.83;;
66607;SDS011;53462;39.616;8.824;2022-10-13T05:35:00;5.82;;;2.20;;
66607;SDS011;53462;39.616;8.824;2022-10-13T05:37:26;12.05;;;2.50;;
66607;SDS011;53462;39.616;8.824;2022-10-13T05:39:52;3.97;;;1.85;;
66607;SDS011;53462;39.616;8.824;2022-10-13T05:42:18;5.32;;;2.00;;
66607;SDS011;53462;39.616;8.824;2022-10-13T05:44:44;8.27;;;1.90;;
66607;SDS011;53462;39.616;8.824;2022-10-13T05:47:10;6.00;;;2.65;;
66607;SDS011;53462;39.616;8.824;2022-10-13T05:49:36;6.70;;;2.17;;
66607;SDS011;53462;39.616;8.824;2022-10-13T05:52:05;8.70;;;2.25;;
66607;SDS011;53462;39.616;8.824;2022-10-13T05:54:38;7.30;;;2.22;;
66607;SDS011;53462;39.616;8.824;2022-10-13T05:57:20;8.27;;;2.10;;
66607;SDS011;53462;39.616;8.824;2022-10-13T06:00:04;7.47;;;2.13;;
66607;SDS011;53462;39.616;8.824;2022-10-13T06:02:39;7.82;;;2.22;;
66607;SDS011;53462;39.616;8.824;2022-10-13T06:05:19;8.85;;;2.38;;
66607;SDS011;53462;39.616;8.824;2022-10-13T06:07:51;8.90;;;2.45;;
66607;SDS011;53462;39.616;8.824;2022-10-13T06:10:19;12.82;;;3.58;;
66607;SDS011;53462;39.616;8.824;2022-10-13T06:12:45;8.13;;;2.20;;
66607;SDS011;53462;39.616;8.824;2022-10-13T06:15:11;8.50;;;2.33;;
66607;SDS011;53462;39.616;8.824;2022-10-13T06:17:37;7.13;;;2.58;;
66607;SDS011;53462;39.616;8.824;2022-10-13T06:20:04;9.75;;;2.55;;
66607;SDS011;53462;39.616;8.824;2022-10-13T06:22:32;5.25;;;2.13;;
66607;SDS011;53462;39.616;8.824;2022-10-13T06:24:59;8.18;;;2.47;;
66607;SDS011;53462;39.616;8.824;2022-10-13T06:27:25;4.72;;;2.10;;
66607;SDS011;53462;39.616;8.824;2022-10-13T06:29:52;11.23;;;2.28;;
66607;SDS011;53462;39.616;8.824;2022-10-13T06:32:18;8.15;;;2.20;;
66607;SDS011;53462;39.616;8.824;2022-10-13T06:34:44;5.78;;;2.63;;
66607;SDS011;53462;39.616;8.824;2022-10-13T06:37:10;6.22;;;2.40;;
66607;SDS011;53462;39.616;8.824;2022-10-13T06:39:36;5.78;;;2.28;;
66607;SDS011;53462;39.616;8.824;2022-10-13T06:42:02;6.15;;;2.60;;
66607;SDS011;53462;39.616;8.824;2022-10-13T06:44:32;7.80;;;3.28;;
66607;SDS011;53462;39.616;8.824;2022-10-13T06:47:00;7.88;;;2.85;;
66607;SDS011;53462;39.616;8.824;2022-10-13T06:49:27;7.97;;;3.20;;
66607;SDS011;53462;39.616;8.824;2022-10-13T06:51:53;7.82;;;3.20;;
66607;SDS011;53462;39.616;8.824;2022-10-13T06:54:19;11.50;;;3.58;;
66607;SDS011;53462;39.616;8.824;2022-10-13T06:56:45;11.45;;;3.65;;
66607;SDS011;53462;39.616;8.824;2022-10-13T06:59:11;10.13;;;3.10;;
66607;SDS011;53462;39.616;8.824;2022-10-13T07:01:37;7.38;;;3.10;;
66607;SDS011;53462;39.616;8.824;2022-10-13T07:04:06;5.45;;;3.10;;
66607;SDS011;53462;39.616;8.824;2022-10-13T07:06:33;7.45;;;3.42;;
66607;SDS011;53462;39.616;8.824;2022-10-13T07:09:05;6.57;;;3.97;;
66607;SDS011;53462;39.616;8.824;2022-10-13T07:11:33;11.32;;;4.05;;
66607;SDS011;53462;39.616;8.824;2022-10-13T07:14:00;7.35;;;3.78;;
66607;SDS011;53462;39.616;8.824;2022-10-13T07:16:26;6.85;;;3.75;;
66607;SDS011;53462;39.616;8.824;2022-10-13T07:18:52;6.20;;;3.22;;
66607;SDS011;53462;39.616;8.824;2022-10-13T07:21:18;9.18;;;3.67;;
66607;SDS011;53462;39.616;8.824;2022-10-13T07:23:44;9.15;;;3.60;;
66607;SDS011;53462;39.616;8.824;2022-10-13T07:26:11;6.07;;;3.75;;
66607;SDS011;53462;39.616;8.824;2022-10-13T07:28:38;12.35;;;4.80;;
66607;SDS011;53462;39.616;8.824;2022-10-13T07:31:14;11.68;;;3.75;;
66607;SDS011;53462;39.616;8.824;2022-10-13T07:33:44;6.75;;;3.00;;
66607;SDS011;53462;39.616;8.824;2022-10-13T07:36:15;4.95;;;2.85;;
66607;SDS011;53462;39.616;8.824;2022-10-13T07:38:41;5.45;;;2.90;;
66607;SDS011;53462;39.616;8.824;2022-10-13T07:41:08;4.90;;;2.70;;
66607;SDS011;53462;39.616;8.824;2022-10-13T07:43:36;5.35;;;2.00;;
66607;SDS011;53462;39.616;8.824;2022-10-13T07:46:03;6.78;;;2.10;;
66607;SDS011;53462;39.616;8.824;2022-10-13T07:48:31;2.00;;;1.60;;
66607;SDS011;53462;39.616;8.824;2022-10-13T07:51:07;4.65;;;1.90;;
66607;SDS011;53462;39.616;8.824;2022-10-13T07:53:34;5.80;;;1.63;;
66607;SDS011;53462;39.616;8.824;2022-10-13T07:56:01;3.97;;;1.73;;
66607;SDS011;53462;39.616;8.824;2022-10-13T07:58:29;1.73;;;1.60;;
66607;SDS011;53462;39.616;8.824;2022-10-13T08:00:58;2.35;;;1.35;;
66607;SDS011;53462;39.616;8.824;2022-10-13T08:03:26;4.53;;;1.23;;
66607;SDS011;53462;39.616;8.824;2022-10-13T08:05:53;3.47;;;1.00;;
66607;SDS011;53462;39.616;8.824;2022-10-13T08:08:20;2.78;;;1.40;;
66607;SDS011;53462;39.616;8.824;2022-10-13T08:10:46;1.40;;;0.93;;
66607;SDS011;53462;39.616;8.824;2022-10-13T08:13:12;1.13;;;0.90;;
66607;SDS011;53462;39.616;8.824;2022-10-13T08:15:39;10.25;;;1.02;;
66607;SDS011;53462;39.616;8.824;2022-10-13T08:18:06;1.02;;;0.80;;
66607;SDS011;53462;39.616;8.824;2022-10-13T08:20:33;1.40;;;1.00;;
66607;SDS011;53462;39.616;8.824;2022-10-13T08:22:59;1.15;;;0.80;;
66607;SDS011;53462;39.616;8.824;2022-10-13T08:25:25;1.52;;;0.80;;
66607;SDS011;53462;39.616;8.824;2022-10-13T08:27:51;5.65;;;1.55;;
66607;SDS011;53462;39.616;8.824;2022-10-13T08:30:17;2.80;;;0.70;;
66607;SDS011;53462;39.616;8.824;2022-10-13T08:32:43;2.70;;;0.70;;
66607;SDS011;53462;39.616;8.824;2022-10-13T08:35:09;2.38;;;0.60;;
66607;SDS011;53462;39.616;8.824;2022-10-13T08:37:36;2.28;;;0.40;;
66607;SDS011;53462;39.616;8.824;2022-10-13T08:40:02;0.80;;;0.50;;
66607;SDS011;53462;39.616;8.824;2022-10-13T08:42:28;0.52;;;0.40;;
66607;SDS011;53462;39.616;8.824;2022-10-13T08:44:55;0.98;;;0.50;;
66607;SDS011;53462;39.616;8.824;2022-10-13T08:50:14;2.08;;;0.60;;
66607;SDS011;53462;39.616;8.824;2022-10-13T08:55:22;0.80;;;0.50;;
66607;SDS011;53462;39.616;8.824;2022-10-13T08:58:10;3.25;;;0.40;;
66607;SDS011;53462;39.616;8.824;2022-10-13T09:00:41;1.00;;;0.50;;
66607;SDS011;53462;39.616;8.824;2022-10-13T09:03:19;1.83;;;0.60;;
66607;SDS011;53462;39.616;8.824;2022-10-13T09:06:08;3.28;;;0.57;;
66607;SDS011;53462;39.616;8.824;2022-10-13T09:08:39;1.80;;;0.70;;
66607;SDS011;53462;39.616;8.824;2022-10-13T09:11:10;1.30;;;0.50;;
66607;SDS011;53462;39.616;8.824;2022-10-13T09:13:37;0.85;;;0.40;;
66607;SDS011;53462;39.616;8.824;2022-10-13T09:16:03;2.17;;;0.60;;
66607;SDS011;53462;39.616;8.824;2022-10-13T09:18:30;0.60;;;0.50;;
66607;SDS011;53462;39.616;8.824;2022-10-13T09:23:43;0.65;;;0.40;;
66607;SDS011;53462;39.616;8.824;2022-10-13T09:26:13;1.63;;;0.50;;
66607;SDS011;53462;39.616;8.824;2022-10-13T09:28:46;2.60;;;0.50;;
66607;SDS011;53462;39.616;8.824;2022-10-13T09:33:44;2.83;;;0.60;;
66607;SDS011;53462;39.616;8.824;2022-10-13T09:36:15;2.35;;;0.50;;
66607;SDS011;53462;39.616;8.824;2022-10-13T09:39:03;1.55;;;0.57;;
66607;SDS011;53462;39.616;8.824;2022-10-13T09:41:43;0.95;;;0.57;;
66607;SDS011;53462;39.616;8.824;2022-10-13T09:44:16;2.05;;;0.52;;
66607;SDS011;53462;39.616;8.824;2022-10-13T09:46:52;1.43;;;0.70;;
66607;SDS011;53462;39.616;8.824;2022-10-13T10:00:18;1.55;;;0.60;;
66607;SDS011;53462;39.616;8.824;2022-10-13T10:02:48;1.02;;;0.60;;
66607;SDS011;53462;39.616;8.824;2022-10-13T10:10:50;2.08;;;0.50;;
66607;SDS011;53462;39.616;8.824;2022-10-13T10:13:17;3.22;;;0.70;;
66607;SDS011;53462;39.616;8.824;2022-10-13T10:24:10;0.98;;;0.50;;
66607;SDS011;53462;39.616;8.824;2022-10-13T10:43:42;1.92;;;0.57;;
66607;SDS011;53462;39.616;8.824;2022-10-13T10:46:19;1.85;;;0.90;;
66607;SDS011;53462;39.616;8.824;2022-10-13T10:48:47;0.93;;;0.33;;
66607;SDS011;53462;39.616;8.824;2022-10-13T10:51:18;2.25;;;0.45;;
66607;SDS011;53462;39.616;8.824;2022-10-13T10:53:54;0.60;;;0.43;;
66607;SDS011;53462;39.616;8.824;2022-10-13T10:59:15;1.60;;;0.60;;
66607;SDS011;53462;39.616;8.824;2022-10-13T11:01:58;1.55;;;0.40;;
66607;SDS011;53462;39.616;8.824;2022-10-13T11:17:29;2.17;;;0.43;;
66607;SDS011;53462;39.616;8.824;2022-10-13T11:25:37;1.20;;;0.40;;
66607;SDS011;53462;39.616;8.824;2022-10-13T11:30:53;0.45;;;0.30;;
66607;SDS011;53462;39.616;8.824;2022-10-13T11:47:14;0.40;;;0.28;;
66607;SDS011;53462;39.616;8.824;2022-10-13T11:52:26;0.20;;;0.13;;
66607;SDS011;53462;39.616;8.824;2022-10-13T11:55:18;0.32;;;0.30;;
66607;SDS011;53462;39.616;8.824;2022-10-13T11:58:08;1.13;;;0.30;;
66607;SDS011;53462;39.616;8.824;2022-10-13T12:03:24;0.98;;;0.30;;
66607;SDS011;53462;39.616;8.824;2022-10-13T12:05:52;0.25;;;0.25;;
66607;SDS011;53462;39.616;8.824;2022-10-13T12:08:29;2.05;;;0.30;;
66607;SDS011;53462;39.616;8.824;2022-10-13T12:10:58;0.40;;;0.20;;
66607;SDS011;53462;39.616;8.824;2022-10-13T12:13:29;1.05;;;0.30;;
66607;SDS011;53462;39.616;8.824;2022-10-13T12:15:58;1.00;;;0.30;;
66607;SDS011;53462;39.616;8.824;2022-10-13T12:18:32;0.82;;;0.30;;
66607;SDS011;53462;39.616;8.824;2022-10-13T12:21:08;0.43;;;0.30;;
66607;SDS011;53462;39.616;8.824;2022-10-13T12:23:44;0.68;;;0.40;;
66607;SDS011;53462;39.616;8.824;2022-10-13T12:26:15;1.02;;;0.30;;
66607;SDS011;53462;39.616;8.824;2022-10-13T12:28:50;0.47;;;0.30;;
66607;SDS011;53462;39.616;8.824;2022-10-13T12:31:59;1.00;;;0.35;;
66607;SDS011;53462;39.616;8.824;2022-10-13T12:36:52;0.40;;;0.30;;
66607;SDS011;53462;39.616;8.824;2022-10-13T12:39:30;0.20;;;0.20;;
66607;SDS011;53462;39.616;8.824;2022-10-13T12:41:58;0.22;;;0.22;;
66607;SDS011;53462;39.616;8.824;2022-10-13T12:44:26;1.95;;;0.40;;
66607;SDS011;53462;39.616;8.824;2022-10-13T12:46:55;0.80;;;0.43;;
66607;SDS011;53462;39.616;8.824;2022-10-13T12:52:09;1.73;;;0.30;;
66607;SDS011;53462;39.616;8.824;2022-10-13T12:54:48;0.35;;;0.30;;
66607;SDS011;53462;39.616;8.824;2022-10-13T12:57:24;0.28;;;0.28;;
66607;SDS011;53462;39.616;8.824;2022-10-13T13:02:58;0.30;;;0.30;;
66607;SDS011;53462;39.616;8.824;2022-10-13T13:05:32;0.40;;;0.30;;
66607;SDS011;53462;39.616;8.824;2022-10-13T13:08:21;0.20;;;0.20;;
66607;SDS011;53462;39.616;8.824;2022-10-13T13:10:54;0.40;;;0.30;;
66607;SDS011;53462;39.616;8.824;2022-10-13T13:13:24;0.70;;;0.40;;
66607;SDS011;53462;39.616;8.824;2022-10-13T13:15:51;1.15;;;0.30;;
66607;SDS011;53462;39.616;8.824;2022-10-13T13:20:53;0.55;;;0.40;;
66607;SDS011;53462;39.616;8.824;2022-10-13T13:23:19;2.13;;;0.35;;
66607;SDS011;53462;39.616;8.824;2022-10-13T13:25:47;0.82;;;0.50;;
66607;SDS011;53462;39.616;8.824;2022-10-13T13:28:31;1.05;;;0.40;;
66607;SDS011;53462;39.616;8.824;2022-10-13T13:31:00;0.30;;;0.30;;
66607;SDS011;53462;39.616;8.824;2022-10-13T13:33:26;0.68;;;0.40;;
66607;SDS011;53462;39.616;8.824;2022-10-13T13:35:54;0.50;;;0.40;;
66607;SDS011;53462;39.616;8.824;2022-10-13T13:38:20;2.95;;;0.40;;
66607;SDS011;53462;39.616;8.824;2022-10-13T13:40:46;0.60;;;0.40;;
66607;SDS011;53462;39.616;8.824;2022-10-13T13:43:12;2.80;;;0.43;;
66607;SDS011;53462;39.616;8.824;2022-10-13T13:45:38;1.02;;;0.40;;
66607;SDS011;53462;39.616;8.824;2022-10-13T13:48:05;0.75;;;0.47;;
66607;SDS011;53462;39.616;8.824;2022-10-13T13:50:32;1.98;;;0.50;;
66607;SDS011;53462;39.616;8.824;2022-10-13T13:53:00;1.27;;;0.50;;
66607;SDS011;53462;39.616;8.824;2022-10-13T13:55:26;0.90;;;0.40;;
66607;SDS011;53462;39.616;8.824;2022-10-13T13:57:54;0.63;;;0.40;;
66607;SDS011;53462;39.616;8.824;2022-10-13T14:00:20;0.75;;;0.43;;
66607;SDS011;53462;39.616;8.824;2022-10-13T14:02:52;1.75;;;0.52;;
66607;SDS011;53462;39.616;8.824;2022-10-13T14:05:19;2.10;;;0.50;;
66607;SDS011;53462;39.616;8.824;2022-10-13T14:07:45;2.63;;;0.70;;
66607;SDS011;53462;39.616;8.824;2022-10-13T14:10:11;0.88;;;0.50;;
66607;SDS011;53462;39.616;8.824;2022-10-13T14:12:37;1.33;;;0.90;;
66607;SDS011;53462;39.616;8.824;2022-10-13T14:15:03;2.13;;;0.80;;
66607;SDS011;53462;39.616;8.824;2022-10-13T14:17:30;1.58;;;0.90;;
66607;SDS011;53462;39.616;8.824;2022-10-13T14:19:56;3.67;;;1.02;;
66607;SDS011;53462;39.616;8.824;2022-10-13T14:22:22;1.45;;;1.10;;
66607;SDS011;53462;39.616;8.824;2022-10-13T14:24:48;2.47;;;1.42;;
66607;SDS011;53462;39.616;8.824;2022-10-13T14:27:14;2.40;;;1.10;;
66607;SDS011;53462;39.616;8.824;2022-10-13T14:29:40;3.20;;;1.20;;
66607;SDS011;53462;39.616;8.824;2022-10-13T14:32:06;3.00;;;1.27;;
66607;SDS011;53462;39.616;8.824;2022-10-13T14:34:32;4.60;;;1.20;;
66607;SDS011;53462;39.616;8.824;2022-10-13T14:36:58;2.00;;;1.20;;
66607;SDS011;53462;39.616;8.824;2022-10-13T14:39:24;2.70;;;1.20;;
66607;SDS011;53462;39.616;8.824;2022-10-13T14:41:50;1.45;;;1.15;;
66607;SDS011;53462;39.616;8.824;2022-10-13T14:44:15;1.77;;;1.17;;
66607;SDS011;53462;39.616;8.824;2022-10-13T14:46:43;4.35;;;1.80;;
66607;SDS011;53462;39.616;8.824;2022-10-13T14:49:09;3.88;;;1.40;;
66607;SDS011;53462;39.616;8.824;2022-10-13T14:51:38;4.88;;;1.20;;
66607;SDS011;53462;39.616;8.824;2022-10-13T14:54:04;2.50;;;1.30;;
66607;SDS011;53462;39.616;8.824;2022-10-13T14:56:31;1.42;;;1.13;;
66607;SDS011;53462;39.616;8.824;2022-10-13T14:58:57;2.67;;;1.33;;
66607;SDS011;53462;39.616;8.824;2022-10-13T15:01:34;2.88;;;1.30;;
66607;SDS011;53462;39.616;8.824;2022-10-13T15:04:01;4.57;;;1.30;;
66607;SDS011;53462;39.616;8.824;2022-10-13T15:06:29;4.50;;;1.50;;
66607;SDS011;53462;39.616;8.824;2022-10-13T15:08:55;3.13;;;1.40;;
66607;SDS011;53462;39.616;8.824;2022-10-13T15:11:22;3.38;;;1.27;;
66607;SDS011;53462;39.616;8.824;2022-10-13T15:13:48;5.75;;;1.45;;
66607;SDS011;53462;39.616;8.824;2022-10-13T15:16:19;3.72;;;1.40;;
66607;SDS011;53462;39.616;8.824;2022-10-13T15:18:46;4.50;;;1.75;;
66607;SDS011;53462;39.616;8.824;2022-10-13T15:21:12;5.03;;;1.70;;
66607;SDS011;53462;39.616;8.824;2022-10-13T15:23:39;2.33;;;1.50;;
66607;SDS011;53462;39.616;8.824;2022-10-13T15:26:06;4.75;;;1.58;;
66607;SDS011;53462;39.616;8.824;2022-10-13T15:28:36;2.95;;;1.40;;
66607;SDS011;53462;39.616;8.824;2022-10-13T15:31:04;2.88;;;1.80;;
66607;SDS011;53462;39.616;8.824;2022-10-13T15:33:30;4.15;;;1.50;;
66607;SDS011;53462;39.616;8.824;2022-10-13T15:35:57;6.47;;;1.80;;
66607;SDS011;53462;39.616;8.824;2022-10-13T15:38:23;3.35;;;1.60;;
66607;SDS011;53462;39.616;8.824;2022-10-13T15:40:49;2.83;;;1.80;;
66607;SDS011;53462;39.616;8.824;2022-10-13T15:43:15;2.92;;;1.88;;
66607;SDS011;53462;39.616;8.824;2022-10-13T15:45:42;3.30;;;1.58;;
66607;SDS011;53462;39.616;8.824;2022-10-13T15:48:17;4.88;;;1.70;;
66607;SDS011;53462;39.616;8.824;2022-10-13T15:50:42;6.80;;;2.00;;
66607;SDS011;53462;39.616;8.824;2022-10-13T15:53:08;4.43;;;1.80;;
66607;SDS011;53462;39.616;8.824;2022-10-13T15:55:34;6.07;;;1.95;;
66607;SDS011;53462;39.616;8.824;2022-10-13T15:58:00;4.72;;;1.92;;
66607;SDS011;53462;39.616;8.824;2022-10-13T16:00:26;4.63;;;1.95;;
66607;SDS011;53462;39.616;8.824;2022-10-13T16:02:52;3.85;;;1.80;;
66607;SDS011;53462;39.616;8.824;2022-10-13T16:05:18;5.65;;;2.75;;
66607;SDS011;53462;39.616;8.824;2022-10-13T16:07:44;3.40;;;2.05;;
66607;SDS011;53462;39.616;8.824;2022-10-13T16:10:11;5.82;;;2.30;;
66607;SDS011;53462;39.616;8.824;2022-10-13T16:12:38;3.88;;;1.90;;
66607;SDS011;53462;39.616;8.824;2022-10-13T16:15:05;5.05;;;2.47;;
66607;SDS011;53462;39.616;8.824;2022-10-13T16:17:31;5.30;;;2.17;;
66607;SDS011;53462;39.616;8.824;2022-10-13T16:19:57;7.40;;;2.22;;
66607;SDS011;53462;39.616;8.824;2022-10-13T16:22:24;6.55;;;2.95;;
66607;SDS011;53462;39.616;8.824;2022-10-13T16:24:50;6.22;;;2.25;;
66607;SDS011;53462;39.616;8.824;2022-10-13T16:27:16;5.40;;;2.67;;
66607;SDS011;53462;39.616;8.824;2022-10-13T16:29:42;5.85;;;2.72;;
66607;SDS011;53462;39.616;8.824;2022-10-13T16:32:08;3.97;;;1.92;;
66607;SDS011;53462;39.616;8.824;2022-10-13T16:34:34;5.00;;;2.28;;
66607;SDS011;53462;39.616;8.824;2022-10-13T16:37:00;5.35;;;2.88;;
66607;SDS011;53462;39.616;8.824;2022-10-13T16:39:26;6.35;;;2.22;;
66607;SDS011;53462;39.616;8.824;2022-10-13T16:41:52;5.53;;;2.20;;
66607;SDS011;53462;39.616;8.824;2022-10-13T16:44:23;6.15;;;2.40;;
66607;SDS011;53462;39.616;8.824;2022-10-13T16:46:49;4.05;;;2.05;;
66607;SDS011;53462;39.616;8.824;2022-10-13T16:49:16;7.70;;;2.72;;
66607;SDS011;53462;39.616;8.824;2022-10-13T16:51:42;4.88;;;2.45;;
66607;SDS011;53462;39.616;8.824;2022-10-13T16:54:08;3.28;;;2.33;;
66607;SDS011;53462;39.616;8.824;2022-10-13T16:56:34;7.35;;;2.47;;
66607;SDS011;53462;39.616;8.824;2022-10-13T16:59:01;7.80;;;2.47;;
66607;SDS011;53462;39.616;8.824;2022-10-13T17:01:29;7.57;;;2.35;;
66607;SDS011;53462;39.616;8.824;2022-10-13T17:03:56;4.47;;;2.10;;
66607;SDS011;53462;39.616;8.824;2022-10-13T17:06:23;6.35;;;2.40;;
66607;SDS011;53462;39.616;8.824;2022-10-13T17:08:53;5.72;;;2.40;;